Time;durP1;ratioP1;P1;durP2;ratioP2;P2;SDS_P1;SDS_P2;PMS_P1;PMS_P2;Temp;Humidity;BMP_temperature;BMP_pressure;BME280_temperature;BME280_humidity;BME280_pressure;Samples;Min_cycle;Max_cycle;Signal;HPM_P1;HPM_P2
2022/12/10 00:01:29;;;;;;;36.28;23.23;;;;;;;-1.60;100.00;100886.75;5114950;28;20056;-37
2022/12/10 00:03:55;;;;;;;40.67;24.17;;;;;;;-1.54;100.00;100882.66;5115278;28;20034;-37
2022/12/10 00:06:23;;;;;;;29.85;21.40;;;;;;;-1.55;100.00;100888.94;5114904;28;20027;-36
2022/12/10 00:08:50;;;;;;;37.20;24.73;;;;;;;-1.64;100.00;100887.19;5114578;28;20032;-37
2022/12/10 00:11:18;;;;;;;35.67;24.95;;;;;;;-1.60;100.00;100884.09;5114686;28;20087;-37
2022/12/10 00:13:44;;;;;;;34.25;23.90;;;;;;;-1.55;100.00;100886.28;5114500;28;20058;-36
2022/12/10 00:16:11;;;;;;;37.58;23.35;;;;;;;-1.50;100.00;100878.72;5114426;28;20065;-36
2022/12/10 00:18:37;;;;;;;37.38;24.08;;;;;;;-1.59;100.00;100864.53;5114361;28;20038;-36
2022/12/10 00:21:04;;;;;;;41.03;26.30;;;;;;;-1.52;100.00;100885.97;5114560;28;20019;-37
2022/12/10 00:23:32;;;;;;;38.45;26.27;;;;;;;-1.57;100.00;100890.91;5115092;28;20036;-36
2022/12/10 00:26:31;;;;;;;39.95;25.90;;;;;;;-1.45;100.00;100895.00;5113647;28;20027;-36
2022/12/10 00:28:56;;;;;;;40.00;25.25;;;;;;;-1.43;100.00;100900.97;5092076;28;20035;-37
2022/12/10 00:31:30;;;;;;;35.65;24.48;;;;;;;-1.39;100.00;100891.75;5091598;28;20459;-37
2022/12/10 00:33:58;;;;;;;35.78;25.13;;;;;;;-1.41;100.00;100887.59;5074480;28;20441;-36
2022/12/10 00:36:30;;;;;;;37.75;25.00;;;;;;;-1.53;100.00;100891.44;5091304;28;20085;-36
2022/12/10 00:38:55;;;;;;;37.33;23.95;;;;;;;-1.47;100.00;100899.63;5092147;28;20453;-37
2022/12/10 00:41:21;;;;;;;35.30;24.33;;;;;;;-1.41;100.00;100888.41;5091859;28;20127;-37
2022/12/10 00:43:47;;;;;;;33.75;23.00;;;;;;;-1.35;100.00;100894.94;5091550;28;20165;-37
2022/12/10 00:46:14;;;;;;;33.42;23.05;;;;;;;-1.36;100.00;100880.84;5091534;28;20032;-37
2022/12/10 00:48:40;;;;;;;36.92;24.58;;;;;;;-1.28;100.00;100889.84;5091335;28;20035;-36
2022/12/10 00:51:09;;;;;;;36.92;25.13;;;;;;;-1.43;100.00;100892.19;5091531;28;20062;-36
2022/12/10 00:53:36;;;;;;;35.80;22.58;;;;;;;-1.39;100.00;100875.00;5090418;28;20527;-37
2022/12/10 00:56:03;;;;;;;36.03;24.08;;;;;;;-1.41;100.00;100883.13;5091070;28;20050;-37
2022/12/10 00:58:30;;;;;;;34.20;22.15;;;;;;;-1.24;100.00;100869.97;5091269;28;20431;-37
2022/12/10 01:01:31;;;;;;;38.05;24.27;;;;;;;-1.41;100.00;100869.84;5090998;28;20100;-37
2022/12/10 01:03:59;;;;;;;37.15;24.02;;;;;;;-1.43;100.00;100861.19;5097883;28;20039;-37
2022/12/10 01:06:27;;;;;;;39.13;25.30;;;;;;;-1.47;100.00;100867.78;5113424;28;20161;-37
2022/12/10 01:08:56;;;;;;;35.17;23.13;;;;;;;-1.45;100.00;100867.66;5114444;28;20027;-37
2022/12/10 01:11:24;;;;;;;33.47;22.95;;;;;;;-1.40;100.00;100874.16;5113876;28;20058;-37
2022/12/10 01:13:49;;;;;;;36.33;23.60;;;;;;;-1.38;100.00;100877.47;5114382;28;20059;-37
2022/12/10 01:16:18;;;;;;;36.67;24.00;;;;;;;-1.51;100.00;100869.09;5114199;28;20067;-36
2022/12/10 01:18:43;;;;;;;36.55;24.15;;;;;;;-1.49;100.00;100888.34;5114774;28;20043;-36
2022/12/10 01:21:12;;;;;;;41.77;25.73;;;;;;;-1.48;100.00;100895.31;5113838;28;20100;-36
2022/12/10 01:23:40;;;;;;;39.28;22.27;;;;;;;-1.46;100.00;100882.75;5113758;28;20028;-36
2022/12/10 01:26:12;;;;;;;38.03;24.05;;;;;;;-1.38;100.00;100890.75;5113317;28;20395;-36
2022/12/10 01:28:39;;;;;;;38.15;24.65;;;;;;;-1.41;100.00;100884.94;5113280;28;20031;-37
2022/12/10 01:31:07;;;;;;;39.58;26.70;;;;;;;-1.44;100.00;100878.09;5114032;28;20030;-36
2022/12/10 01:33:34;;;;;;;43.15;25.60;;;;;;;-1.52;100.00;100887.78;5111804;28;20035;-36
2022/12/10 01:36:09;;;;;;;35.72;23.30;;;;;;;-1.39;100.00;100875.81;5113023;28;20023;-36
2022/12/10 01:38:34;;;;;;;37.30;24.17;;;;;;;-1.46;100.00;100866.81;5113610;28;20467;-37
2022/12/10 01:41:00;;;;;;;36.23;24.07;;;;;;;-1.41;100.00;100875.16;5113556;28;20068;-35
2022/12/10 01:43:26;;;;;;;38.38;23.92;;;;;;;-1.35;100.00;100881.66;5113998;28;20053;-37
2022/12/10 01:45:52;;;;;;;;;;;;;;;-1.31;100.00;100883.03;5113945;28;20043;-36
2022/12/10 01:48:18;;;;;;;38.05;23.88;;;;;;;-1.35;100.00;100890.44;5113858;28;19926;-36
2022/12/10 01:50:43;;;;;;;39.10;23.95;;;;;;;-1.36;100.00;100885.31;5111785;28;20034;-36
2022/12/10 01:53:08;;;;;;;42.37;26.83;;;;;;;-1.58;100.00;100892.72;5112121;28;20073;-37
2022/12/10 01:55:39;;;;;;;44.47;27.40;;;;;;;-1.63;100.00;100899.47;5113643;28;20112;-36
2022/12/10 01:58:04;;;;;;;39.42;27.17;;;;;;;-1.67;100.00;100896.28;5113458;28;20027;-36
2022/12/10 02:00:34;;;;;;;38.40;25.97;;;;;;;-1.57;100.00;100885.59;5113464;28;20027;-36
2022/12/10 02:03:10;;;;;;;37.70;24.15;;;;;;;-1.62;100.00;100888.69;5112937;28;20428;-36
2022/12/10 02:05:53;;;;;;;41.75;26.95;;;;;;;-1.59;100.00;100893.72;5116664;28;20474;-36
2022/12/10 02:08:21;;;;;;;42.22;28.05;;;;;;;-1.55;100.00;100902.22;5117710;28;20032;-36
2022/12/10 02:11:02;;;;;;;37.45;24.52;;;;;;;-1.46;100.00;100901.31;5117107;28;20433;-37
2022/12/10 02:13:33;;;;;;;36.65;25.13;;;;;;;-1.29;100.00;100899.63;5117617;28;20108;-36
2022/12/10 02:16:14;;;;;;;39.58;26.55;;;;;;;-1.47;100.00;100873.09;5116800;28;20038;-37
2022/12/10 02:18:48;;;;;;;42.72;27.52;;;;;;;-1.35;100.00;100895.75;5117253;28;20059;-36
2022/12/10 02:21:22;;;;;;;39.05;26.05;;;;;;;-1.39;100.00;100907.66;5117043;28;20459;-37
2022/12/10 02:23:54;;;;;;;42.25;25.77;;;;;;;-1.38;100.00;100909.31;5115587;28;20417;-36
2022/12/10 02:26:25;;;;;;;40.10;26.17;;;;;;;-1.35;100.00;100908.19;5117126;28;20031;-36
2022/12/10 02:29:15;;;;;;;41.40;28.00;;;;;;;-1.39;100.00;100894.38;5117049;28;20114;-37
2022/12/10 02:31:45;;;;;;;40.80;27.85;;;;;;;-1.50;100.00;100910.53;5116769;28;20043;-36
2022/12/10 02:34:13;;;;;;;38.95;25.95;;;;;;;-1.61;100.00;100902.78;5116806;28;20032;-36
2022/12/10 02:36:41;;;;;;;37.92;24.80;;;;;;;-1.71;100.00;100908.16;5116298;28;20015;-36
2022/12/10 02:39:11;;;;;;;38.33;25.35;;;;;;;-1.73;100.00;100898.69;5133171;27;20076;-36
2022/12/10 02:41:42;;;;;;;41.08;27.20;;;;;;;-1.99;100.00;100899.41;5116135;28;20462;-36
2022/12/10 02:44:11;;;;;;;37.78;25.63;;;;;;;-1.88;100.00;100912.47;5115665;28;20035;-36
2022/12/10 02:46:40;;;;;;;36.38;23.80;;;;;;;-1.88;100.00;100908.97;5115119;28;20394;-36
2022/12/10 02:49:06;;;;;;;36.85;24.05;;;;;;;-1.95;100.00;100908.75;5116717;28;20055;-36
2022/12/10 02:51:32;;;;;;;38.17;24.55;;;;;;;-1.87;100.00;100908.81;5116705;28;20032;-36
2022/12/10 02:54:05;;;;;;;40.37;25.07;;;;;;;-2.05;100.00;100897.34;5116478;28;20028;-37
2022/12/10 02:56:41;;;;;;;42.35;25.48;;;;;;;-1.99;100.00;100912.66;5116568;28;20028;-36
2022/12/10 02:59:32;;;;;;;47.30;25.25;;;;;;;-2.06;100.00;100916.88;5116584;28;20452;-36
2022/12/10 03:02:35;;;;;;;37.65;23.63;;;;;;;-1.96;100.00;100911.53;5116343;28;20028;-36
2022/12/10 03:05:07;;;;;;;39.83;23.73;;;;;;;-1.99;100.00;100909.19;5093765;28;20105;-36
2022/12/10 03:08:12;;;;;;;37.63;24.58;;;;;;;-1.88;100.00;100919.59;5093364;28;20062;-36
2022/12/10 03:10:49;;;;;;;35.90;23.27;;;;;;;-1.75;100.00;100911.28;5033117;28;20127;-36
2022/12/10 03:13:17;;;;;;;47.03;26.98;;;;;;;-1.95;100.00;100905.22;5033713;28;20038;-36
2022/12/10 03:15:46;;;;;;;47.10;26.83;;;;;;;-1.92;100.00;100915.56;5032467;28;20386;-36
2022/12/10 03:18:16;;;;;;;44.83;26.58;;;;;;;-1.92;100.00;100915.56;5033424;28;20057;-36
2022/12/10 03:20:45;;;;;;;44.63;26.33;;;;;;;-2.12;100.00;100880.38;5033057;28;20052;-36
2022/12/10 03:23:16;;;;;;;51.88;27.75;;;;;;;-1.92;100.00;100910.25;5033589;28;20514;-36
2022/12/10 03:25:41;;;;;;;51.75;28.58;;;;;;;-1.95;100.00;100911.41;5033415;28;20034;-36
2022/12/10 03:28:08;;;;;;;43.97;27.48;;;;;;;-1.96;100.00;100912.34;5032734;28;20046;-37
2022/12/10 03:30:35;;;;;;;55.70;28.42;;;;;;;-1.95;100.00;100910.53;5032666;28;20523;-36
2022/12/10 03:33:02;;;;;;;44.72;28.02;;;;;;;-1.91;100.00;100907.44;5032713;28;20041;-36
2022/12/10 03:35:28;;;;;;;46.00;27.50;;;;;;;-1.85;100.00;100906.03;5032713;28;20040;-36
2022/12/10 03:37:53;;;;;;;50.47;27.10;;;;;;;-1.93;100.00;100904.13;5033130;28;20026;-36
2022/12/10 03:40:22;;;;;;;48.83;29.20;;;;;;;-1.86;100.00;100907.81;5015914;28;20611;-36
2022/12/10 03:42:48;;;;;;;43.75;26.65;;;;;;;-1.74;100.00;100907.66;5033256;28;20037;-37
2022/12/10 03:45:14;;;;;;;56.20;28.77;;;;;;;-1.91;100.00;100910.09;5044222;28;20105;-36
2022/12/10 03:47:40;;;;;;;51.83;30.60;;;;;;;-1.82;100.00;100916.31;5115362;28;20276;-37
2022/12/10 03:50:06;;;;;;;46.05;28.08;;;;;;;-1.93;100.00;100893.50;5115201;28;20104;-36
2022/12/10 03:52:31;;;;;;;48.90;29.92;;;;;;;-1.77;100.00;100913.22;5115259;28;20483;-36
2022/12/10 03:54:57;;;;;;;53.23;30.23;;;;;;;-1.90;100.00;100908.31;5115392;28;20063;-36
2022/12/10 03:57:22;;;;;;;51.33;29.87;;;;;;;-1.87;100.00;100903.50;5115190;28;20375;-36
2022/12/10 03:59:47;;;;;;;51.80;29.37;;;;;;;-1.92;100.00;100892.53;5097110;28;20119;-36
2022/12/10 04:02:13;;;;;;;59.93;31.17;;;;;;;-1.76;100.00;100921.03;5114704;28;20035;-36
2022/12/10 04:04:38;;;;;;;58.03;31.33;;;;;;;-1.86;100.00;100904.34;5115559;28;20178;-36
2022/12/10 04:07:03;;;;;;;58.90;32.53;;;;;;;-1.78;100.00;100916.88;5115240;28;20123;-36
2022/12/10 04:09:29;;;;;;;55.57;31.00;;;;;;;-1.66;100.00;100920.97;5115239;28;20096;-36
2022/12/10 04:11:58;;;;;;;59.27;31.10;;;;;;;-1.72;100.00;100926.88;5115094;28;20378;-36
2022/12/10 04:17:08;;;;;;;57.45;33.03;;;;;;;-1.75;100.00;100924.53;5114740;28;20063;-37
2022/12/10 04:19:33;;;;;;;65.00;33.57;;;;;;;-1.78;100.00;100924.81;5115512;28;20028;-37
2022/12/10 04:27:29;;;;;;;65.35;32.78;;;;;;;-1.78;100.00;100927.47;5114487;28;20427;-36
2022/12/10 04:29:55;;;;;;;66.43;34.67;;;;;;;-1.83;100.00;100933.22;5114563;28;20035;-36
2022/12/10 04:32:22;;;;;;;62.63;35.25;;;;;;;-1.77;100.00;100926.50;5114473;28;20134;-38
2022/12/10 04:34:47;;;;;;;;;;;;;;;-1.68;100.00;100929.06;5115427;28;20048;-37
2022/12/10 04:37:13;;;;;;;72.67;32.57;;;;;;;-1.78;100.00;100933.59;5113057;28;20372;-37
2022/12/10 04:39:39;;;;;;;116.13;35.55;;;;;;;-1.92;100.00;100929.63;5114541;28;20598;-37
2022/12/10 04:42:05;;;;;;;73.13;33.95;;;;;;;-1.82;100.00;100938.38;5113034;28;20023;-37
2022/12/10 04:44:30;;;;;;;67.35;33.10;;;;;;;-1.85;100.00;100933.38;5114788;27;20030;-37
2022/12/10 04:46:56;;;;;;;96.27;36.67;;;;;;;-1.87;100.00;100940.63;5113957;28;20023;-37
2022/12/10 04:49:21;;;;;;;71.35;34.35;;;;;;;-1.89;100.00;100925.88;5114455;28;20069;-37
2022/12/10 04:51:47;;;;;;;65.97;34.15;;;;;;;-1.91;100.00;100933.13;5113919;28;20021;-37
2022/12/10 04:54:13;;;;;;;63.50;34.08;;;;;;;-1.79;100.00;100931.13;5114110;28;20047;-37
2022/12/10 04:56:39;;;;;;;73.10;35.22;;;;;;;-1.93;100.00;100930.63;5114567;28;20063;-37
2022/12/10 04:59:06;;;;;;;82.90;35.00;;;;;;;-1.91;100.00;100949.84;5114105;28;20030;-37
2022/12/10 05:01:32;;;;;;;;;;;;;;;-1.81;100.00;100947.16;5114112;28;20024;-37
2022/12/10 05:04:03;;;;;;;85.00;33.28;;;;;;;-1.94;100.00;100939.56;5114075;28;19914;-37
2022/12/10 05:06:28;;;;;;;84.95;34.05;;;;;;;-1.95;100.00;100943.19;5113973;28;20110;-37
2022/12/10 05:08:54;;;;;;;65.60;32.80;;;;;;;-1.91;100.00;100930.47;5113920;28;20111;-37
2022/12/10 05:11:21;;;;;;;72.38;34.80;;;;;;;-1.89;100.00;100941.78;5113776;28;20062;-37
2022/12/10 05:13:47;;;;;;;117.43;36.22;;;;;;;-2.07;100.00;100928.47;5113869;28;20035;-37
2022/12/10 05:16:16;;;;;;;79.70;34.87;;;;;;;-2.07;100.00;100939.06;5113581;28;20039;-37
2022/12/10 05:18:42;;;;;;;80.55;35.28;;;;;;;-2.10;100.00;100940.22;5113590;28;20039;-37
2022/12/10 05:21:12;;;;;;;72.90;34.38;;;;;;;-1.94;100.00;100958.13;5113872;28;20386;-37
2022/12/10 05:23:39;;;;;;;68.05;33.75;;;;;;;-1.97;100.00;100937.19;5114213;28;20127;-37
2022/12/10 05:26:14;;;;;;;123.90;38.17;;;;;;;-1.97;100.00;100942.50;5113597;28;20081;-37
2022/12/10 05:28:44;;;;;;;81.43;35.65;;;;;;;-1.93;100.00;100954.47;5113834;28;20047;-37
2022/12/10 05:31:14;;;;;;;68.38;35.28;;;;;;;-1.92;100.00;100945.53;5113527;28;20027;-37
2022/12/10 05:33:40;;;;;;;72.93;37.08;;;;;;;-1.92;100.00;100948.19;5113482;28;20063;-37
2022/12/10 05:36:05;;;;;;;61.53;32.33;;;;;;;-1.83;100.00;100946.47;5113426;28;20070;-37
2022/12/10 05:38:33;;;;;;;69.38;35.35;;;;;;;-1.88;100.00;100931.00;5113423;28;20028;-37
2022/12/10 05:41:06;;;;;;;70.97;36.40;;;;;;;-1.75;100.00;100946.59;5113381;28;20028;-37
2022/12/10 05:43:32;;;;;;;80.72;36.13;;;;;;;-1.75;100.00;100941.28;5113854;28;20027;-37
2022/12/10 05:46:05;;;;;;;82.40;35.00;;;;;;;-1.86;100.00;100918.44;5113279;28;20368;-37
2022/12/10 05:48:31;;;;;;;76.97;35.03;;;;;;;-1.74;100.00;100939.47;5114192;28;20309;-37
2022/12/10 05:50:57;;;;;;;110.07;37.33;;;;;;;-1.89;100.00;100942.59;5113102;28;20030;-37
2022/12/10 05:53:23;;;;;;;75.93;34.60;;;;;;;-1.89;100.00;100939.94;5113710;28;20322;-37
2022/12/10 05:55:48;;;;;;;85.72;35.70;;;;;;;-2.02;100.00;100939.44;5113311;28;20456;-37
2022/12/10 05:58:14;;;;;;;78.10;34.10;;;;;;;-1.99;100.00;100949.78;5113454;28;20505;-38
2022/12/10 06:00:40;;;;;;;83.90;35.07;;;;;;;-1.85;100.00;100953.75;5113276;28;20031;-37
2022/12/10 06:03:06;;;;;;;72.30;35.03;;;;;;;-1.93;100.00;100938.56;5113913;28;20517;-38
2022/12/10 06:05:39;;;;;;;62.35;32.38;;;;;;;-1.76;100.00;100957.31;5112316;28;20081;-36
2022/12/10 06:08:05;;;;;;;63.30;30.73;;;;;;;-1.78;100.00;100954.81;5113833;28;20046;-36
2022/12/10 06:10:30;;;;;;;73.05;32.70;;;;;;;-1.76;100.00;100949.34;5113195;28;20035;-37
2022/12/10 06:12:56;;;;;;;84.20;36.90;;;;;;;-1.82;100.00;100956.09;5113223;28;20028;-37
2022/12/10 06:15:21;;;;;;;89.13;36.30;;;;;;;-1.85;100.00;100949.28;5113188;28;20289;-36
2022/12/10 06:17:46;;;;;;;78.00;37.27;;;;;;;-1.75;100.00;100948.41;5113375;28;20341;-36
2022/12/10 06:20:12;;;;;;;78.10;36.23;;;;;;;-1.79;100.00;100939.06;5113098;28;20464;-37
2022/12/10 06:22:37;;;;;;;87.63;35.58;;;;;;;-1.82;100.00;100948.13;5113908;28;20035;-37
2022/12/10 06:25:04;;;;;;;75.63;34.87;;;;;;;-1.78;100.00;100951.34;5113173;28;20064;-37
2022/12/10 06:27:31;;;;;;;97.25;36.00;;;;;;;-1.92;100.00;100960.59;5111774;28;20027;-36
2022/12/10 06:29:56;;;;;;;81.68;37.13;;;;;;;-1.88;100.00;100965.47;5113566;28;20110;-36
2022/12/10 06:32:22;;;;;;;86.20;37.10;;;;;;;-1.93;100.00;100959.78;5112996;28;20466;-36
2022/12/10 06:34:47;;;;;;;78.73;35.40;;;;;;;-1.89;100.00;100958.50;5112443;28;20265;-36
2022/12/10 06:37:12;;;;;;;92.30;37.23;;;;;;;-2.07;100.00;100939.06;5112972;28;20063;-37
2022/12/10 06:39:38;;;;;;;93.83;37.63;;;;;;;-2.00;100.00;100964.00;5113873;28;20035;-37
2022/12/10 06:42:03;;;;;;;84.43;36.57;;;;;;;-2.00;100.00;100969.31;5112668;28;20024;-37
2022/12/10 06:44:28;;;;;;;77.57;35.40;;;;;;;-1.99;100.00;100970.16;5112538;28;20031;-37
2022/12/10 06:46:54;;;;;;;85.50;36.83;;;;;;;-2.03;100.00;100966.94;5113434;28;20024;-37
2022/12/10 06:49:19;;;;;;;82.60;33.87;;;;;;;-1.99;100.00;100981.56;5113196;28;20387;-36
2022/12/10 06:51:44;;;;;;;81.93;36.83;;;;;;;-1.97;100.00;100982.25;5114690;28;20020;-36
2022/12/10 06:54:09;;;;;;;76.33;34.77;;;;;;;-1.96;100.00;100978.63;5116925;28;20062;-38
2022/12/10 06:56:35;;;;;;;72.47;33.93;;;;;;;-1.90;100.00;100988.66;5116416;28;20023;-36
2022/12/10 06:59:04;;;;;;;72.70;34.23;;;;;;;-1.87;100.00;100976.91;5116156;28;20026;-37
2022/12/10 07:01:29;;;;;;;66.97;32.35;;;;;;;-1.81;100.00;100981.59;5116244;28;20043;-36
2022/12/10 07:03:56;;;;;;;74.93;34.30;;;;;;;-1.85;100.00;100978.44;5116162;28;20031;-36
2022/12/10 07:06:23;;;;;;;83.50;31.95;;;;;;;-1.78;100.00;100977.84;5116729;28;20384;-37
2022/12/10 07:08:49;;;;;;;75.72;35.17;;;;;;;-1.80;100.00;100993.06;5114884;28;20034;-36
2022/12/10 07:11:17;;;;;;;74.35;34.40;;;;;;;-1.78;100.00;100996.41;5115844;28;20045;-37
2022/12/10 07:13:42;;;;;;;79.90;32.38;;;;;;;-1.77;100.00;100995.41;5115826;28;20476;-36
2022/12/10 07:16:15;;;;;;;69.17;33.93;;;;;;;-1.79;100.00;100992.09;5115954;28;20028;-37
2022/12/10 07:18:41;;;;;;;87.30;34.08;;;;;;;-1.82;100.00;100996.69;5116639;28;20048;-37
2022/12/10 07:21:18;;;;;;;74.43;32.97;;;;;;;-1.77;100.00;100993.59;5115951;27;20656;-37
2022/12/10 07:23:44;;;;;;;69.18;29.77;;;;;;;-1.72;100.00;100993.16;5116323;27;20468;-36
2022/12/10 07:26:09;;;;;;;66.72;32.30;;;;;;;-1.74;100.00;100995.97;5115909;28;20034;-36
2022/12/10 07:28:35;;;;;;;69.57;33.40;;;;;;;-1.79;100.00;100992.09;5116082;28;20046;-37
2022/12/10 07:31:05;;;;;;;66.53;30.77;;;;;;;-1.68;100.00;101003.31;5115820;28;20023;-37
2022/12/10 07:33:31;;;;;;;87.25;34.38;;;;;;;-1.83;100.00;100997.69;5116148;28;20076;-37
2022/12/10 07:35:56;;;;;;;65.18;32.00;;;;;;;-1.78;100.00;101005.19;5114547;28;20035;-37
2022/12/10 07:38:23;;;;;;;66.40;31.80;;;;;;;-1.88;100.00;100996.44;5114219;28;20115;-36
2022/12/10 07:40:49;;;;;;;69.07;33.83;;;;;;;-1.87;100.00;101001.59;5115664;27;20031;-37
2022/12/10 07:43:14;;;;;;;62.45;32.30;;;;;;;-1.84;100.00;101006.63;5116177;28;20039;-37
2022/12/10 07:45:39;;;;;;;67.50;34.20;;;;;;;-1.73;100.00;101013.53;5115245;27;20035;-37
2022/12/10 07:48:05;;;;;;;73.63;33.27;;;;;;;-1.78;100.00;101017.63;5114836;28;20036;-37
2022/12/10 07:50:30;;;;;;;76.27;33.63;;;;;;;-1.84;100.00;101014.56;5115445;28;20110;-37
2022/12/10 07:52:55;;;;;;;64.00;32.47;;;;;;;-1.79;100.00;101021.25;5115585;27;20740;-37
2022/12/10 07:55:21;;;;;;;73.77;33.50;;;;;;;-1.78;100.00;101017.63;5115632;28;20036;-37
2022/12/10 07:57:46;;;;;;;77.37;37.40;;;;;;;-1.84;100.00;101019.03;5115205;28;20032;-37
2022/12/10 08:00:12;;;;;;;65.47;34.07;;;;;;;-1.86;100.00;101026.28;5115302;28;20028;-37
2022/12/10 08:02:37;;;;;;;67.20;34.47;;;;;;;-1.74;100.00;101029.59;5114929;28;20070;-37
2022/12/10 08:05:03;;;;;;;70.83;36.07;;;;;;;-1.70;100.00;101034.47;5115259;28;20027;-38
2022/12/10 08:07:28;;;;;;;69.68;32.45;;;;;;;-1.67;100.00;101036.81;5115016;28;20028;-38
2022/12/10 08:09:53;;;;;;;67.03;32.23;;;;;;;-1.67;100.00;101028.84;5115793;28;20031;-37
2022/12/10 08:12:19;;;;;;;62.17;32.53;;;;;;;-1.68;100.00;101024.53;5114115;28;20034;-37
2022/12/10 08:14:44;;;;;;;81.77;33.53;;;;;;;-1.58;100.00;101038.56;5115609;28;20027;-36
2022/12/10 08:17:09;;;;;;;61.23;33.17;;;;;;;-1.60;100.00;101048.50;5114590;28;20085;-35
2022/12/10 08:19:35;;;;;;;67.77;32.60;;;;;;;-1.61;100.00;101046.84;5114910;28;20035;-37
2022/12/10 08:22:00;;;;;;;63.80;31.43;;;;;;;-1.66;100.00;101034.97;5114918;28;20118;-37
2022/12/10 08:24:25;;;;;;;62.97;31.30;;;;;;;-1.66;100.00;101038.50;5115102;28;20031;-37
2022/12/10 08:26:51;;;;;;;82.77;34.30;;;;;;;-1.62;100.00;101054.94;5114517;28;20050;-36
2022/12/10 08:29:16;;;;;;;65.40;31.10;;;;;;;-1.62;100.00;101057.59;5115043;28;20020;-36
2022/12/10 08:31:41;;;;;;;56.40;29.37;;;;;;;-1.54;100.00;101062.16;5114678;28;20376;-36
2022/12/10 08:34:13;;;;;;;58.83;30.97;;;;;;;-1.51;100.00;101060.06;5114676;28;20028;-36
2022/12/10 08:36:38;;;;;;;58.83;30.98;;;;;;;-1.51;100.00;101052.09;5114762;28;20055;-36
2022/12/10 08:39:03;;;;;;;67.17;31.67;;;;;;;-1.56;100.00;101059.66;5114835;28;20062;-36
2022/12/10 08:41:29;;;;;;;61.63;30.03;;;;;;;-1.44;100.00;101068.25;5133179;27;20055;-36
2022/12/10 08:43:55;;;;;;;56.70;29.00;;;;;;;-1.34;100.00;101067.22;5134701;27;20064;-36
2022/12/10 08:46:21;;;;;;;57.15;32.10;;;;;;;-1.35;100.00;101072.69;5134690;27;20023;-36
2022/12/10 08:48:46;;;;;;;62.20;31.27;;;;;;;-1.30;100.00;101065.09;5135014;27;20023;-36
2022/12/10 08:51:16;;;;;;;76.93;33.00;;;;;;;-1.40;100.00;101062.50;5134898;27;20026;-36
2022/12/10 08:53:42;;;;;;;70.35;31.60;;;;;;;-1.31;100.00;101063.44;5135152;27;20019;-37
2022/12/10 08:56:08;;;;;;;68.63;32.38;;;;;;;-1.39;100.00;101069.47;5133032;27;20031;-36
2022/12/10 08:58:33;;;;;;;59.17;28.92;;;;;;;-1.39;100.00;101058.03;5135335;27;20083;-36
2022/12/10 09:01:01;;;;;;;60.03;29.53;;;;;;;-1.41;100.00;101058.19;5134547;27;20467;-37
2022/12/10 09:03:26;;;;;;;58.10;28.80;;;;;;;-1.35;100.00;101067.38;5134652;27;20090;-36
2022/12/10 09:05:52;;;;;;;79.45;32.05;;;;;;;-1.45;100.00;101063.94;5135378;27;20109;-36
2022/12/10 09:08:17;;;;;;;61.47;28.60;;;;;;;-1.36;100.00;101071.00;5135240;27;20083;-36
2022/12/10 09:10:42;;;;;;;56.33;28.20;;;;;;;-1.40;100.00;101081.06;5133253;27;20046;-36
2022/12/10 09:13:08;;;;;;;94.50;30.70;;;;;;;-1.50;100.00;101071.50;5132666;27;20156;-36
2022/12/10 09:15:33;;;;;;;61.40;29.38;;;;;;;-1.39;100.00;101073.94;5134680;27;20030;-36
2022/12/10 09:17:59;;;;;;;58.58;29.42;;;;;;;-1.38;100.00;101076.44;5134949;27;20069;-36
2022/12/10 09:20:25;;;;;;;56.70;27.00;;;;;;;-1.49;100.00;101063.38;5134842;27;20301;-37
2022/12/10 09:22:50;;;;;;;57.70;28.80;;;;;;;-1.47;100.00;101064.06;5134746;27;20523;-37
2022/12/10 09:25:16;;;;;;;49.40;26.60;;;;;;;-1.28;100.00;101091.47;5134405;27;20042;-37
2022/12/10 09:27:42;;;;;;;;;;;;;;;-1.23;100.00;101089.22;5134786;27;20106;-37
2022/12/10 09:30:09;;;;;;;50.15;25.10;;;;;;;-1.19;100.00;101093.25;5134366;27;20013;-37
2022/12/10 09:32:34;;;;;;;58.13;26.83;;;;;;;-1.23;100.00;101091.88;5134303;27;20023;-37
2022/12/10 09:34:59;;;;;;;51.67;27.77;;;;;;;-1.09;100.00;101094.03;5134234;27;20024;-37
2022/12/10 09:37:25;;;;;;;47.17;25.77;;;;;;;-0.99;100.00;101099.28;5134653;27;20026;-37
2022/12/10 09:39:50;;;;;;;45.83;25.77;;;;;;;-1.02;100.00;101097.78;5134709;27;20417;-37
2022/12/10 09:42:39;;;;;;;79.90;27.97;;;;;;;-1.20;100.00;101099.53;5134451;27;20059;-37
2022/12/10 09:45:22;;;;;;;54.40;26.38;;;;;;;-1.17;100.00;101105.41;5124096;28;20127;-37
2022/12/10 09:48:13;;;;;;;62.33;28.13;;;;;;;-1.14;100.00;101107.75;5134443;27;20037;-37
2022/12/10 09:50:54;;;;;;;64.40;29.00;;;;;;;-1.17;100.00;101101.88;5134075;27;20027;-36
2022/12/10 09:53:21;;;;;;;55.50;26.92;;;;;;;-1.21;100.00;101100.53;5134881;27;20336;-37
2022/12/10 09:55:48;;;;;;;61.08;25.23;;;;;;;-1.24;100.00;101106.13;5134217;27;20034;-37
2022/12/10 09:58:25;;;;;;;54.53;25.23;;;;;;;-1.25;100.00;101109.78;5134042;27;20028;-38
2022/12/10 10:01:01;;;;;;;57.60;26.58;;;;;;;-1.39;100.00;101093.34;5134577;27;20054;-38
2022/12/10 10:03:28;;;;;;;44.20;24.63;;;;;;;-1.20;100.00;101115.47;5133816;27;20475;-37
2022/12/10 10:05:56;;;;;;;45.08;24.05;;;;;;;-1.16;100.00;101109.72;5132404;28;20039;-37
2022/12/10 10:08:42;;;;;;;43.78;24.48;;;;;;;-1.12;100.00;101115.56;5134105;27;20365;-37
2022/12/10 10:11:15;;;;;;;50.93;24.70;;;;;;;-1.30;100.00;101096.94;5134236;27;20092;-37
2022/12/10 10:13:57;;;;;;;43.65;23.15;;;;;;;-1.34;100.00;101091.09;5133871;27;20475;-37
2022/12/10 10:16:33;;;;;;;51.40;25.30;;;;;;;-1.16;100.00;101119.50;5133962;27;20084;-37
2022/12/10 10:19:01;;;;;;;46.90;24.70;;;;;;;-1.11;100.00;101127.84;5134388;27;20119;-38
2022/12/10 10:21:32;;;;;;;50.33;24.63;;;;;;;-1.13;100.00;101125.31;5133637;27;20436;-37
2022/12/10 10:23:58;;;;;;;51.53;26.98;;;;;;;-1.12;100.00;101126.19;5134356;27;20027;-37
2022/12/10 10:26:25;;;;;;;46.85;26.73;;;;;;;-1.15;100.00;101119.34;5137082;27;20027;-37
2022/12/10 10:29:00;;;;;;;58.83;26.50;;;;;;;-1.26;100.00;101103.63;5137671;27;20027;-37
2022/12/10 10:31:31;;;;;;;49.58;25.92;;;;;;;-1.23;100.00;101107.78;5137992;27;20375;-37
2022/12/10 10:34:03;;;;;;;44.75;24.52;;;;;;;-1.01;100.00;101117.19;5137773;27;20490;-37
2022/12/10 10:36:31;;;;;;;47.97;25.88;;;;;;;-1.36;100.00;101087.75;5137524;27;20027;-37
2022/12/10 10:39:07;;;;;;;44.75;22.55;;;;;;;-1.19;100.00;101114.47;5137219;27;20035;-37
2022/12/10 10:41:39;;;;;;;46.35;22.67;;;;;;;-1.15;100.00;101121.16;5137472;27;20027;-37
2022/12/10 10:44:04;;;;;;;41.28;22.75;;;;;;;-1.30;100.00;101095.13;5137399;27;20038;-37
2022/12/10 10:46:36;;;;;;;47.03;23.90;;;;;;;-1.07;100.00;101127.41;5132730;27;20031;-37
2022/12/10 10:49:31;;;;;;;44.78;24.35;;;;;;;-1.05;100.00;101119.28;5135906;27;20264;-37
2022/12/10 10:52:05;;;;;;;39.90;23.98;;;;;;;-1.04;100.00;101116.47;5135568;27;20126;-37
2022/12/10 10:54:39;;;;;;;42.97;22.83;;;;;;;-1.05;100.00;101112.16;5137348;27;20038;-37
2022/12/10 10:57:15;;;;;;;40.25;22.58;;;;;;;-1.06;100.00;101113.16;5137072;27;20015;-37
2022/12/10 10:59:41;;;;;;;45.25;22.85;;;;;;;-1.04;100.00;101111.16;5137033;27;20141;-37
2022/12/10 11:02:24;;;;;;;42.53;22.60;;;;;;;-0.96;100.00;101110.44;5137098;27;20031;-37
2022/12/10 11:04:58;;;;;;;41.13;22.42;;;;;;;-0.96;100.00;101105.13;5136795;27;20475;-37
2022/12/10 11:07:30;;;;;;;38.45;21.25;;;;;;;-1.01;100.00;101091.47;5136913;27;20118;-36
2022/12/10 11:09:55;;;;;;;41.60;23.85;;;;;;;-0.92;100.00;101108.31;5137634;27;20027;-36
2022/12/10 11:12:26;;;;;;;44.20;23.23;;;;;;;-0.98;100.00;101100.94;5137331;27;20027;-36
2022/12/10 11:14:52;;;;;;;39.03;22.10;;;;;;;-0.96;100.00;101102.47;5136780;27;20032;-36
2022/12/10 11:17:21;;;;;;;48.13;24.43;;;;;;;-0.90;100.00;101112.50;5136469;27;20043;-36